Aviation Digital Data Service (ADDS)

Output produced by METARs form (1508 UTC 11 December 2017)
found at http://www.aviationweather.gov/adds/metars/
 
KTVR 111453Z AUTO VRB03KT 10SM CLR 08/03 A3025 RMK AO2 SLP252 T00830028 56002
KTVR 111353Z AUTO 19003KT 10SM CLR 03/02 A3026 RMK AO2 SLP253 T00330017
KTVR 111253Z AUTO 00000KT 10SM CLR M01/M01 A3025 RMK AO2 SLP251 T10061006
KTVR 111153Z AUTO 00000KT 10SM CLR M01/M01 A3026 RMK AO2 SLP254 T10061011 10028 21017 53003
KTVR 111053Z AUTO 00000KT 10SM CLR 00/M01 A3025 RMK AO2 SLP251 T00001011
KTVR 110953Z AUTO 00000KT 10SM CLR 01/M01 A3025 RMK AO2 SLP250 T00061011
KTVR 110853Z AUTO 20003KT 10SM CLR 01/M01 A3025 RMK AO2 SLP251 T00111011 58011
KTVR 110753Z AUTO 21003KT 10SM CLR 02/M01 A3027 RMK AO2 SLP255 T00171006
KTVR 110653Z AUTO 20003KT 10SM CLR 01/M02 A3028 RMK AO2 SLP260 T00061017
KTVR 110553Z AUTO 17003KT 10SM CLR 02/M01 A3028 RMK AO2 SLP262 T00171011 10094 20011 401501056 58004
KTVR 110453Z AUTO 00000KT 10SM CLR 04/M01 A3030 RMK AO2 SLP267 T00391006
KTVR 110353Z AUTO 19003KT 10SM CLR 03/M01 A3030 RMK AO2 SLP269 T00281006
KTVR 110253Z AUTO 00000KT 10SM CLR 04/M01 A3030 RMK AO2 SLP267 T00391006 58001
KTVR 110153Z AUTO 00000KT 10SM CLR 07/M01 A3030 RMK AO2 SLP268 T00671011
KTVR 110053Z AUTO 19004KT 10SM CLR 09/M02 A3030 RMK AO2 SLP268 T00891022
KTVR 102353Z AUTO 20003KT 10SM CLR 08/M03 A3030 RMK AO2 SLP268 T00831028 10150 20078 55003
KTVR 102253Z AUTO 00000KT 10SM CLR 12/M03 A3029 RMK AO2 SLP265 T01171033
KTVR 102153Z AUTO 00000KT 10SM CLR 14/M04 A3030 RMK AO2 SLP268 T01391044
KTVR 102053Z AUTO 27005KT 10SM CLR 14/M05 A3031 RMK AO2 SLP271 T01391050 56023
KTVR 101953Z AUTO VRB03KT 10SM CLR 14/M05 A3032 RMK AO2 SLP274 T01441050
KTVR 101853Z AUTO VRB04KT 10SM CLR 13/M02 A3034 RMK AO2 SLP283 T01331022
KTVR 101753Z AUTO VRB06KT 10SM CLR 13/M02 A3038 RMK AO2 SLP294 T01331017 10133 21050 58008
KTVR 101653Z AUTO 17006KT 10SM CLR 11/03 A3039 RMK AO2 SLP300 T01060028
KTVR 101553Z AUTO 16005KT 10SM CLR 06/02 A3041 RMK AO2 SLP306 T00610022
KTVR 101453Z AUTO 17004KT 10SM CLR 02/02 A3040 RMK AO2 SLP302 T00220017 53011
KTVR 101353Z AUTO 00000KT 10SM CLR M02/M02 A3039 RMK AO2 SLP298 T10171017
KTVR 101253Z AUTO 00000KT 10SM CLR M05/M05 A3037 RMK AO2 SLP292 T10501050
KTVR 101153Z AUTO 00000KT 10SM CLR M05/M06 A3037 RMK AO2 SLP291 T10501056 11022 21056 53011
KTVR 101053Z AUTO 00000KT 10SM CLR M04/M05 A3035 RMK AO2 SLP285 T10441050
KTVR 101027Z AUTO 00000KT 4SM BR CLR M03/M04 A3035 RMK AO2 T10331039
KTVR 101016Z AUTO 00000KT 1 3/4SM BR CLR M03/M04 A3034 RMK AO2 T10331039
KTVR 100953Z AUTO 00000KT 10SM CLR M04/M05 A3034 RMK AO2 SLP282 T10441050
KTVR 100853Z AUTO 00000KT 10SM CLR M03/M04 A3033 RMK AO2 SLP280 T10331039 50009
KTVR 100753Z AUTO 00000KT 10SM CLR M04/M04 A3034 RMK AO2 SLP280 T10391039
KTVR 100653Z AUTO 27003KT 10SM CLR M03/M04 A3032 RMK AO2 SLP274 T10331039
KTVR 100553Z AUTO 00000KT 10SM CLR M02/M02 A3031 RMK AO2 SLP271 T10221022 10056 21022 401281072 51017
KTVR 100453Z AUTO 00000KT 10SM CLR M02/M02 A3030 RMK AO2 SLP267 T10171017
KTVR 100353Z AUTO 01003KT 10SM CLR M01/M01 A3028 RMK AO2 SLP260 T10061011
KTVR 100253Z AUTO 00000KT 10SM CLR 00/M02 A3026 RMK AO2 SLP254 T00001017 51022
KTVR 100153Z AUTO 00000KT 10SM CLR 01/M01 A3024 RMK AO2 SLP247 T00111011
KTVR 100053Z AUTO 00000KT 10SM CLR 03/M01 A3022 RMK AO2 SLP240 T00281011
KTVR 092353Z AUTO 29004KT 10SM CLR 06/M01 A3019 RMK AO2 SLP232 T00611011 10128 20056 53019
KTVR 092253Z AUTO 31004KT 10SM CLR 09/M01 A3017 RMK AO2 SLP225 T00941011
KTVR 092153Z AUTO 30005KT 10SM CLR 12/M01 A3015 RMK AO2 SLP217 T01171011
KTVR 092053Z AUTO 28007G15KT 10SM CLR 12/M01 A3014 RMK AO2 SLP213 T01221011 56009
KTVR 091953Z AUTO VRB06G17KT 10SM CLR 12/M02 A3014 RMK AO2 SLP214 T01171017
KTVR 091853Z AUTO 28008G14KT 10SM CLR 11/M02 A3014 RMK AO2 SLP215 T01111017
KTVR 091753Z AUTO 27007KT 210V290 10SM CLR 10/M03 A3017 RMK AO2 SLP223 T01001028 10100 21072 58006
KTVR 091653Z AUTO 28007KT 10SM CLR 08/M04 A3019 RMK AO2 SLP229 T00831039
KTVR 091553Z AUTO VRB04KT 10SM CLR 05/M02 A3019 RMK AO2 SLP231 T00501022
KTVR 091453Z AUTO VRB04KT 10SM CLR 01/M03 A3019 RMK AO2 SLP229 T00061028 51006
KTVR 091353Z AUTO 26003KT 10SM CLR M02/M03 A3018 RMK AO2 SLP227 T10171028
KTVR 091253Z AUTO 00000KT 10SM CLR M06/M07 A3018 RMK AO2 SLP228 T10611072
KTVR 091153Z AUTO 19003KT 10SM CLR M07/M08 A3017 RMK AO2 SLP223 70001 T10671078 11039 21072 53002
KTVR 091053Z AUTO 00000KT 10SM CLR M07/M07 A3015 RMK AO2 SLP218 T10671072
KTVR 090953Z AUTO 00000KT 10SM CLR M06/M07 A3015 RMK AO2 SLP217 T10561067
KTVR 090853Z AUTO 00000KT 10SM CLR M04/M05 A3016 RMK AO2 SLP221 T10391050 58000
KTVR 090753Z AUTO 26003KT 10SM CLR M06/M06 A3016 RMK AO2 SLP222 T10611061
KTVR 090653Z AUTO 26003KT 10SM CLR M06/M06 A3016 RMK AO2 SLP220 T10561061
KTVR 090553Z AUTO 25003KT 10SM CLR M05/M06 A3016 RMK AO2 SLP221 T10501056 10022 21050 400501050 50001
KTVR 090453Z AUTO 00000KT 10SM CLR M04/M04 A3016 RMK AO2 SLP222 T10441044
KTVR 090353Z AUTO 29003KT 10SM CLR M04/M04 A3017 RMK AO2 SLP223 T10391039
KTVR 090253Z AUTO 29004KT 10SM CLR M02/M04 A3016 RMK AO2 SLP220 T10171039 53014
KTVR 090153Z AUTO 34004KT 10SM CLR 01/M03 A3013 RMK AO2 SLP209 T00111028
KTVR 090053Z AUTO 33005KT 10SM CLR 02/M03 A3014 RMK AO2 SLP212 T00221028
KTVR 082353Z AUTO 32003KT 10SM CLR 02/M03 A3012 RMK AO2 PRESRR SLP206 T00221028 10050 20022 53003
KTVR 082253Z AUTO 36006KT 10SM FEW038 03/M03 A3010 RMK AO2 SLP199 T00331033
KTVR 082153Z AUTO 35008KT 320V020 10SM FEW040 04/M03 A3008 RMK AO2 SLP195 T00391033
KTVR 082053Z AUTO 01007KT 10SM CLR 04/M03 A3011 RMK AO2 SLP203 T00441028 55012
KTVR 081953Z AUTO 01009KT 10SM BKN110 04/M03 A3010 RMK AO2 SLP200 T00441028
KTVR 081853Z AUTO 36011G15KT 10SM FEW036 04/M02 A3011 RMK AO2 SLP205 T00441017
KTVR 081753Z AUTO 02010KT 10SM FEW032 04/M02 A3014 RMK AO2 PRESFR SLP215 60001 T00391017 10039 21006 58019
KTVR 081653Z AUTO 01008KT 10SM FEW028 03/M02 A3017 RMK AO2 SLP225 T00281017
KTVR 081626Z AUTO 00000KT 10SM FEW020 SCT028 02/M01 A3018 RMK AO2 T00171006
KTVR 081619Z AUTO 00000KT 10SM BKN029 02/00 A3018 RMK AO2 T00170000
KTVR 081553Z AUTO 36004KT 10SM BKN031 01/M01 A3018 RMK AO2 PRESFR SLP227 T00111006